UAL1844 KEWR-KSFO
Flight info
| Callsign | UAL1844 |
|---|---|
| Flight time | N/A |
| Altitude | 36000 |
| Route | ZIMMZ Q42 LEWRP/N0475F380 PWE MCK VOAXA Q136 RUMPS OAL INYOE DYAMD5 |
| Aircraft | B77W/H-SDE1E2E3FGHIJ2J3J4J5M1RWXY/LB1D1 |
Departure
| Time | 2026-04-22 14:31 |
|---|---|
| Airport | Newark Liberty International Airport (KEWR) |
Arrival
| Time | N/A |
|---|---|
| Airport | San Francisco International Airport (KSFO) |
| Time | Latitude | Longitude | Altitude | Speed | Heading |
|---|---|---|---|---|---|
| 2026-04-22 13:40 | 40.69814 | -74.17812 | 26 ft | 0 kts | 286° |
| 2026-04-22 14:21 | 40.69806 | -74.17776 | 26 ft | 2 kts | 287° |
| 2026-04-22 14:21 | 40.69802 | -74.17756 | 26 ft | 2 kts | 287° |
| 2026-04-22 14:22 | 40.69793 | -74.17715 | 26 ft | 2 kts | 287° |
| 2026-04-22 14:22 | 40.69788 | -74.17697 | 26 ft | 2 kts | 287° |
| 2026-04-22 14:22 | 40.69780 | -74.17659 | 26 ft | 1 kts | 287° |
| 2026-04-22 14:23 | 40.69780 | -74.17657 | 26 ft | 0 kts | 287° |
| 2026-04-22 14:24 | 40.69783 | -74.17671 | 26 ft | 5 kts | 287° |
| 2026-04-22 14:25 | 40.69807 | -74.17715 | 26 ft | 7 kts | 340° |
| 2026-04-22 14:25 | 40.69866 | -74.17661 | 26 ft | 13 kts | 52° |
| 2026-04-22 14:25 | 40.69903 | -74.17572 | 26 ft | 16 kts | 63° |
| 2026-04-22 14:25 | 40.69956 | -74.17486 | 26 ft | 17 kts | 45° |
| 2026-04-22 14:26 | 40.70019 | -74.17406 | 26 ft | 17 kts | 44° |
| 2026-04-22 14:26 | 40.70095 | -74.17368 | 26 ft | 15 kts | 5° |
| 2026-04-22 14:26 | 40.70200 | -74.17352 | 26 ft | 15 kts | 6° |
| 2026-04-22 14:26 | 40.70298 | -74.17343 | 26 ft | 9 kts | 4° |
| 2026-04-22 14:27 | 40.70332 | -74.17323 | 26 ft | 5 kts | 56° |
| 2026-04-22 14:27 | 40.70338 | -74.17240 | 26 ft | 9 kts | 95° |
| 2026-04-22 14:27 | 40.70331 | -74.17142 | 26 ft | 8 kts | 97° |
| 2026-04-22 14:27 | 40.70324 | -74.17046 | 26 ft | 8 kts | 94° |
| 2026-04-22 14:28 | 40.70320 | -74.16979 | 26 ft | 8 kts | 95° |
| 2026-04-22 14:28 | 40.70315 | -74.16910 | 26 ft | 10 kts | 95° |
| 2026-04-22 14:28 | 40.70308 | -74.16799 | 26 ft | 12 kts | 95° |
| 2026-04-22 14:28 | 40.70298 | -74.16652 | 26 ft | 14 kts | 95° |
| 2026-04-22 14:29 | 40.70288 | -74.16517 | 26 ft | 13 kts | 96° |
| 2026-04-22 14:29 | 40.70281 | -74.16417 | 26 ft | 12 kts | 95° |
| 2026-04-22 14:29 | 40.70275 | -74.16321 | 26 ft | 11 kts | 95° |
| 2026-04-22 14:29 | 40.70248 | -74.16234 | 26 ft | 6 kts | 174° |
| 2026-04-22 14:30 | 40.70215 | -74.16247 | 26 ft | 4 kts | 205° |
| 2026-04-22 14:30 | 40.70139 | -74.16293 | 26 ft | 30 kts | 205° |
| 2026-04-22 14:30 | 40.69746 | -74.16541 | 26 ft | 100 kts | 206° |
| 2026-04-22 14:30 | 40.69050 | -74.16991 | 28 ft | 156 kts | 205° |
| 2026-04-22 14:31 | 40.67987 | -74.17676 | 329 ft | 185 kts | 204° |
| 2026-04-22 14:31 | 40.66138 | -74.18798 | 2281 ft | 158 kts | 195° |
| 2026-04-22 14:31 | 40.65085 | -74.19089 | 2785 ft | 169 kts | 188° |
| 2026-04-22 14:32 | 40.62781 | -74.20026 | 3533 ft | 201 kts | 218° |
| 2026-04-22 14:32 | 40.61713 | -74.21650 | 4043 ft | 222 kts | 237° |
| 2026-04-22 14:32 | 40.60898 | -74.23910 | 4675 ft | 241 kts | 258° |
| 2026-04-22 14:32 | 40.60995 | -74.26271 | 5526 ft | 248 kts | 283° |
| 2026-04-22 14:33 | 40.61464 | -74.28410 | 6479 ft | 246 kts | 286° |
| 2026-04-22 14:33 | 40.61957 | -74.30570 | 7375 ft | 247 kts | 286° |